createdAt,value
2016-08-03T00:00:08.193Z,22.59
2016-08-03T00:01:08.174Z,22.49
2016-08-03T00:02:08.146Z,22.59
2016-08-03T00:03:08.139Z,22.52
2016-08-03T00:04:08.133Z,22.59
2016-08-03T00:05:08.112Z,22.59
2016-08-03T00:06:08.101Z,22.56
2016-08-03T00:07:08.084Z,22.59
2016-08-03T00:08:06.647Z,22.57
2016-08-03T00:09:08.049Z,22.52
2016-08-03T00:10:08.035Z,22.52
2016-08-03T00:11:08.023Z,22.61
2016-08-03T00:12:08.000Z,22.51
2016-08-03T00:13:08.004Z,22.57
2016-08-03T00:14:07.971Z,22.56
2016-08-03T00:15:07.258Z,22.57
2016-08-03T00:16:07.946Z,22.56
2016-08-03T00:17:07.926Z,22.48
2016-08-03T00:18:07.918Z,22.57
2016-08-03T00:19:07.901Z,22.54
2016-08-03T00:20:07.906Z,22.52
2016-08-03T00:21:07.870Z,22.6
2016-08-03T00:22:07.845Z,22.49
2016-08-03T00:23:07.834Z,22.57
2016-08-03T00:24:07.816Z,22.56
2016-08-03T00:25:07.820Z,22.61
2016-08-03T00:26:07.794Z,22.6
2016-08-03T00:27:07.775Z,22.57
2016-08-03T00:28:07.765Z,22.6
2016-08-03T00:29:07.745Z,22.59
2016-08-03T00:30:07.728Z,22.57
2016-08-03T00:31:07.712Z,22.57
2016-08-03T00:32:07.694Z,22.59
2016-08-03T00:33:07.681Z,22.57
2016-08-03T00:34:07.723Z,22.46
2016-08-03T00:35:07.656Z,22.61
2016-08-03T00:36:07.638Z,22.63
2016-08-03T00:37:07.619Z,22.6
2016-08-03T00:38:07.607Z,22.57
2016-08-03T00:39:07.595Z,22.61
2016-08-03T00:40:06.862Z,22.64
2016-08-03T00:41:07.555Z,22.57
2016-08-03T00:42:07.536Z,22.54
2016-08-03T00:43:07.525Z,22.57
2016-08-03T00:44:07.509Z,22.63
2016-08-03T00:45:07.499Z,22.57
2016-08-03T00:46:07.478Z,22.57
2016-08-03T00:47:07.459Z,22.6
2016-08-03T00:48:07.457Z,22.61
2016-08-03T00:49:07.432Z,22.57
2016-08-03T00:50:07.424Z,22.57
2016-08-03T00:51:07.405Z,22.56
2016-08-03T00:52:07.380Z,22.56
2016-08-03T00:53:07.379Z,22.57
2016-08-03T00:54:07.360Z,22.6
2016-08-03T00:55:07.350Z,22.63
2016-08-03T00:56:07.332Z,22.54
2016-08-03T00:57:07.324Z,22.6
2016-08-03T00:58:07.296Z,22.63
2016-08-03T00:59:07.281Z,22.63
2016-08-03T01:00:07.269Z,22.6
2016-08-03T01:01:07.246Z,22.59
2016-08-03T01:02:07.236Z,22.54
2016-08-03T01:03:07.218Z,22.6
2016-08-03T01:04:07.214Z,22.57
2016-08-03T01:05:07.182Z,22.61
2016-08-03T01:06:07.174Z,22.56
2016-08-03T01:07:07.158Z,22.56
2016-08-03T01:08:07.152Z,22.67
2016-08-03T01:09:07.132Z,22.6
2016-08-03T01:10:07.113Z,22.63
2016-08-03T01:11:07.107Z,22.6
2016-08-03T01:12:07.081Z,22.63
2016-08-03T01:13:07.063Z,22.54
2016-08-03T01:14:07.055Z,22.57
2016-08-03T01:15:07.070Z,22.61
2016-08-03T01:16:07.018Z,22.59
2016-08-03T01:17:07.003Z,22.63
2016-08-03T01:18:06.986Z,22.6
2016-08-03T01:19:06.272Z,22.6
2016-08-03T01:20:06.961Z,22.63
2016-08-03T01:21:06.942Z,22.6
2016-08-03T01:22:06.936Z,22.6
2016-08-03T01:23:06.923Z,22.6
2016-08-03T01:24:06.898Z,22.64
2016-08-03T01:25:06.885Z,22.63
2016-08-03T01:26:06.872Z,22.61
2016-08-03T01:27:06.848Z,22.56
2016-08-03T01:28:06.833Z,22.64
2016-08-03T01:29:06.830Z,22.64
2016-08-03T01:30:06.802Z,22.66
2016-08-03T01:31:06.784Z,22.56
2016-08-03T01:32:06.777Z,22.57
2016-08-03T01:33:06.770Z,22.6
2016-08-03T01:34:06.742Z,22.63
2016-08-03T01:35:06.731Z,22.57
2016-08-03T01:36:06.718Z,22.6
2016-08-03T01:37:05.990Z,22.56
2016-08-03T01:38:06.681Z,22.59
2016-08-03T01:39:06.664Z,22.57
2016-08-03T01:40:06.650Z,22.6
2016-08-03T01:41:06.630Z,22.57
2016-08-03T01:42:06.616Z,22.61
2016-08-03T01:43:05.903Z,22.59
2016-08-03T01:44:05.669Z,22.56
2016-08-03T01:45:06.578Z,22.61
2016-08-03T01:46:06.556Z,22.59
2016-08-03T01:47:05.839Z,22.59
2016-08-03T01:48:05.823Z,22.59
2016-08-03T01:49:06.516Z,22.61
2016-08-03T01:50:05.786Z,22.6
2016-08-03T01:51:06.489Z,22.61
2016-08-03T01:52:06.474Z,22.64
2016-08-03T01:53:06.449Z,22.59
2016-08-03T01:54:06.449Z,22.61
2016-08-03T01:55:06.424Z,22.64
2016-08-03T01:56:06.412Z,22.63
2016-08-03T01:57:06.393Z,22.61
2016-08-03T01:58:06.385Z,22.61
2016-08-03T02:00:06.342Z,22.61
2016-08-03T02:01:06.340Z,22.61
2016-08-03T02:02:06.328Z,22.59
2016-08-03T02:03:06.303Z,22.63
2016-08-03T02:04:06.286Z,22.66
2016-08-03T02:05:06.279Z,22.67
2016-08-03T02:06:06.255Z,22.59
2016-08-03T02:07:06.234Z,22.57
2016-08-03T02:08:06.235Z,22.61
2016-08-03T02:09:06.206Z,22.64
2016-08-03T02:10:06.196Z,22.67
2016-08-03T02:11:06.177Z,22.63
2016-08-03T02:12:06.161Z,22.61
2016-08-03T02:13:06.143Z,22.64
2016-08-03T02:14:06.136Z,22.61
2016-08-03T02:15:06.110Z,22.69
2016-08-03T02:16:06.109Z,22.64
2016-08-03T02:17:06.084Z,22.63
2016-08-03T02:18:06.074Z,22.69
2016-08-03T02:19:06.057Z,22.66
2016-08-03T02:20:06.043Z,22.64
2016-08-03T02:21:06.031Z,22.69
2016-08-03T02:22:06.007Z,22.72
2016-08-03T02:23:05.288Z,22.67
2016-08-03T02:24:05.985Z,22.69
2016-08-03T02:25:05.974Z,22.69
2016-08-03T02:26:05.949Z,22.69
2016-08-03T02:27:05.935Z,22.67
2016-08-03T02:28:05.918Z,22.69
2016-08-03T02:29:05.190Z,22.64
2016-08-03T02:30:05.886Z,22.64
2016-08-03T02:31:05.870Z,22.61
2016-08-03T02:32:05.859Z,22.67
2016-08-03T02:33:05.131Z,22.69
2016-08-03T02:34:05.831Z,22.64
2016-08-03T02:35:05.811Z,22.66
2016-08-03T02:36:05.795Z,22.72
2016-08-03T02:37:05.776Z,22.64
2016-08-03T02:38:05.773Z,22.66
2016-08-03T02:39:05.747Z,22.69
2016-08-03T02:40:05.739Z,22.66
2016-08-03T02:41:05.012Z,22.64
2016-08-03T02:42:05.705Z,22.69
2016-08-03T02:43:05.689Z,22.66
2016-08-03T02:44:05.679Z,22.69
2016-08-03T02:45:05.665Z,22.66
2016-08-03T02:46:05.648Z,22.72
2016-08-03T02:47:05.625Z,22.67
2016-08-03T02:48:05.624Z,22.72
2016-08-03T02:49:05.598Z,22.67
2016-08-03T02:50:04.885Z,22.69
2016-08-03T02:51:05.576Z,22.67
2016-08-03T02:52:05.552Z,22.75
2016-08-03T02:53:05.543Z,22.69
2016-08-03T02:54:05.527Z,22.67
2016-08-03T02:55:05.505Z,22.67
2016-08-03T02:56:05.486Z,22.69
2016-08-03T02:57:04.767Z,22.75
2016-08-03T02:58:05.462Z,22.64
2016-08-03T02:59:05.449Z,22.64
2016-08-03T03:00:05.442Z,22.64
2016-08-03T03:01:05.426Z,22.7
2016-08-03T03:02:05.394Z,22.66
2016-08-03T03:03:05.384Z,22.67
2016-08-03T03:04:05.366Z,22.64
2016-08-03T03:05:05.356Z,22.66
2016-08-03T03:06:05.332Z,22.72
2016-08-03T03:07:05.327Z,22.74
2016-08-03T03:08:05.310Z,22.74
2016-08-03T03:09:05.297Z,22.74
2016-08-03T03:10:05.288Z,22.74
2016-08-03T03:11:05.266Z,22.66
2016-08-03T03:12:04.538Z,22.7
2016-08-03T03:13:05.237Z,22.74
2016-08-03T03:14:05.213Z,22.67
2016-08-03T03:15:05.203Z,22.66
2016-08-03T03:16:05.189Z,22.67
2016-08-03T03:17:05.173Z,22.67
2016-08-03T03:18:05.153Z,22.7
2016-08-03T03:19:05.148Z,22.74
2016-08-03T03:20:04.418Z,22.74
2016-08-03T03:21:05.115Z,22.67
2016-08-03T03:22:05.095Z,22.7
2016-08-03T03:23:05.087Z,22.67
2016-08-03T03:24:04.369Z,22.66
2016-08-03T03:25:05.054Z,22.66
2016-08-03T03:26:05.035Z,22.72
2016-08-03T03:27:05.033Z,22.7
2016-08-03T03:28:05.003Z,22.66
2016-08-03T03:29:04.994Z,22.69
2016-08-03T03:30:04.971Z,22.67
2016-08-03T03:31:04.964Z,22.67
2016-08-03T03:32:04.230Z,22.66
2016-08-03T03:33:04.929Z,22.66
2016-08-03T03:34:04.914Z,22.69
2016-08-03T03:35:04.909Z,22.67
2016-08-03T03:36:04.880Z,22.69
2016-08-03T03:37:04.869Z,22.67
2016-08-03T03:38:04.853Z,22.64
2016-08-03T03:39:04.835Z,22.69
2016-08-03T03:40:04.131Z,22.66
2016-08-03T03:41:04.807Z,22.7
2016-08-03T03:42:04.076Z,22.69
2016-08-03T03:43:04.782Z,22.69
2016-08-03T03:44:04.760Z,22.7
2016-08-03T03:45:04.755Z,22.67
2016-08-03T03:46:04.732Z,22.66
2016-08-03T03:47:04.724Z,22.72
2016-08-03T03:48:04.706Z,22.67
2016-08-03T03:49:04.680Z,22.7
2016-08-03T03:50:04.669Z,22.69
2016-08-03T03:51:03.952Z,22.7
2016-08-03T03:52:04.641Z,22.66
2016-08-03T03:53:04.630Z,22.67
2016-08-03T03:54:04.607Z,22.7
2016-08-03T03:55:04.594Z,22.66
2016-08-03T03:56:04.578Z,22.66
2016-08-03T03:57:03.852Z,22.61
2016-08-03T03:58:04.549Z,22.69
2016-08-03T03:59:04.528Z,22.69
2016-08-03T04:00:04.516Z,22.7
2016-08-03T04:01:04.491Z,22.61
2016-08-03T04:02:04.489Z,22.67
2016-08-03T04:03:04.471Z,22.64
2016-08-03T04:04:04.457Z,22.7
2016-08-03T04:05:04.451Z,22.66
2016-08-03T04:06:04.423Z,22.64
2016-08-03T04:07:04.414Z,22.64
2016-08-03T04:08:04.395Z,22.67
2016-08-03T04:09:04.386Z,22.66
2016-08-03T04:10:04.360Z,22.64
2016-08-03T04:11:04.349Z,22.64
2016-08-03T04:12:04.337Z,22.67
2016-08-03T04:13:03.607Z,22.69
2016-08-03T04:14:04.308Z,22.67
2016-08-03T04:15:04.286Z,22.72
2016-08-03T04:16:04.281Z,22.72
2016-08-03T04:17:04.255Z,22.66
2016-08-03T04:18:04.255Z,22.7
2016-08-03T04:19:04.224Z,22.66
2016-08-03T04:20:04.213Z,22.69
2016-08-03T04:21:04.201Z,22.64
2016-08-03T04:22:04.182Z,22.64
2016-08-03T04:23:04.158Z,22.69
2016-08-03T04:24:04.153Z,22.64
2016-08-03T04:25:04.138Z,22.64
2016-08-03T04:26:04.121Z,22.69
2016-08-03T04:27:04.117Z,22.67
2016-08-03T04:28:04.088Z,22.69
2016-08-03T04:29:04.070Z,22.67
2016-08-03T04:30:04.058Z,22.57
2016-08-03T04:31:04.043Z,22.63
2016-08-03T04:32:04.032Z,22.67
2016-08-03T04:33:04.008Z,22.66
2016-08-03T04:34:04.005Z,22.66
2016-08-03T04:35:03.982Z,22.67
2016-08-03T04:36:03.256Z,22.61
2016-08-03T04:37:03.968Z,22.69
2016-08-03T04:38:03.942Z,22.61
2016-08-03T04:39:03.213Z,22.66
2016-08-03T04:40:03.918Z,22.61
2016-08-03T04:41:03.895Z,22.64
2016-08-03T04:42:03.174Z,22.7
2016-08-03T04:43:03.863Z,22.69
2016-08-03T04:44:03.843Z,22.67
2016-08-03T04:45:03.831Z,22.64
2016-08-03T04:46:03.810Z,22.69
2016-08-03T04:47:03.802Z,22.7
2016-08-03T04:48:03.780Z,22.69
2016-08-03T04:49:03.770Z,22.64
2016-08-03T04:50:03.759Z,22.66
2016-08-03T04:51:03.737Z,22.63
2016-08-03T04:52:03.719Z,22.69
2016-08-03T04:53:03.710Z,22.69
2016-08-03T04:54:03.686Z,22.69
2016-08-03T04:55:03.679Z,22.67
2016-08-03T04:56:03.670Z,22.67
2016-08-03T04:57:03.654Z,22.63
2016-08-03T04:58:03.631Z,22.67
2016-08-03T04:59:03.628Z,22.69
2016-08-03T05:00:03.597Z,22.66
2016-08-03T05:01:03.584Z,22.7
2016-08-03T05:02:03.569Z,22.63
2016-08-03T05:03:02.840Z,22.72
2016-08-03T05:04:03.557Z,22.67
2016-08-03T05:05:03.538Z,22.7
2016-08-03T05:06:03.505Z,22.69
2016-08-03T05:07:02.788Z,22.69
2016-08-03T05:08:03.474Z,22.69
2016-08-03T05:09:03.466Z,22.69
2016-08-03T05:10:03.448Z,22.63
2016-08-03T05:11:03.446Z,22.67
2016-08-03T05:12:03.424Z,22.69
2016-08-03T05:13:03.408Z,22.69
2016-08-03T05:14:02.672Z,22.66
2016-08-03T05:15:02.666Z,22.7
2016-08-03T05:16:03.345Z,22.7
2016-08-03T05:17:02.627Z,22.7
2016-08-03T05:18:03.314Z,22.69
2016-08-03T05:19:03.310Z,22.72
2016-08-03T05:20:03.297Z,22.64
2016-08-03T05:21:03.285Z,22.69
2016-08-03T05:22:03.268Z,22.7
2016-08-03T05:23:02.542Z,22.66
2016-08-03T05:24:02.532Z,22.7
2016-08-03T05:25:03.213Z,22.7
2016-08-03T05:26:03.211Z,22.7
2016-08-03T05:27:02.485Z,22.74
2016-08-03T05:28:03.172Z,22.72
2016-08-03T05:29:03.157Z,22.66
2016-08-03T05:31:03.126Z,22.67
2016-08-03T05:32:03.112Z,22.69
2016-08-03T05:33:03.096Z,22.7
2016-08-03T05:34:03.085Z,22.72
2016-08-03T05:35:03.066Z,22.69
2016-08-03T05:36:03.050Z,22.67
2016-08-03T05:37:03.036Z,22.69
2016-08-03T05:38:03.032Z,22.64
2016-08-03T05:39:03.015Z,22.7
2016-08-03T05:40:02.996Z,22.72
2016-08-03T05:41:02.972Z,22.67
2016-08-03T05:42:02.256Z,22.67
2016-08-03T05:43:02.952Z,22.72
2016-08-03T05:44:02.223Z,22.67
2016-08-03T05:46:02.900Z,22.72
2016-08-03T05:47:02.889Z,22.69
2016-08-03T05:48:02.874Z,22.7
2016-08-03T05:49:02.855Z,22.69
2016-08-03T05:50:02.843Z,22.69
2016-08-03T05:51:02.820Z,22.66
2016-08-03T05:52:02.815Z,22.66
2016-08-03T05:53:02.789Z,22.72
2016-08-03T05:54:02.070Z,22.69
2016-08-03T05:55:02.765Z,22.72
2016-08-03T05:56:02.750Z,22.67
2016-08-03T05:57:02.727Z,22.72
2016-08-03T05:58:02.719Z,22.7
2016-08-03T05:59:02.705Z,22.72
2016-08-03T06:00:02.695Z,22.72
2016-08-03T06:01:02.670Z,22.74
2016-08-03T06:02:01.949Z,22.67
2016-08-03T06:03:02.638Z,22.69
2016-08-03T06:04:02.629Z,22.69
2016-08-03T06:05:02.612Z,22.72
2016-08-03T06:06:02.594Z,22.69
2016-08-03T06:07:02.594Z,22.64
2016-08-03T06:08:02.559Z,22.64
2016-08-03T06:09:02.546Z,22.63
2016-08-03T06:10:02.551Z,22.69
2016-08-03T06:11:02.520Z,22.66
2016-08-03T06:12:02.503Z,22.7
2016-08-03T06:13:02.497Z,22.7
2016-08-03T06:14:02.467Z,22.66
2016-08-03T06:15:02.458Z,22.64
2016-08-03T06:16:02.440Z,22.63
2016-08-03T06:17:02.428Z,22.64
2016-08-03T06:18:02.415Z,22.64
2016-08-03T06:19:02.395Z,22.66
2016-08-03T06:20:02.375Z,22.7
2016-08-03T06:21:02.364Z,22.64
2016-08-03T06:22:02.342Z,22.67
2016-08-03T06:23:02.338Z,22.66
2016-08-03T06:24:02.318Z,22.69
2016-08-03T06:25:02.312Z,22.63
2016-08-03T06:26:02.300Z,22.66
2016-08-03T06:27:02.270Z,22.67
2016-08-03T06:28:02.253Z,22.64
2016-08-03T06:29:02.248Z,22.64
2016-08-03T06:30:02.227Z,22.59
2016-08-03T06:31:02.216Z,22.67
2016-08-03T06:32:02.208Z,22.59
2016-08-03T06:33:02.182Z,22.61
2016-08-03T06:34:02.166Z,22.63
2016-08-03T06:35:02.153Z,22.67
2016-08-03T06:36:02.138Z,22.6
2016-08-03T06:37:02.131Z,22.64
2016-08-03T06:38:02.109Z,22.64
2016-08-03T06:39:02.096Z,22.61
2016-08-03T06:40:02.075Z,22.61
2016-08-03T06:41:01.360Z,22.64
2016-08-03T06:42:00.620Z,22.63
2016-08-03T06:43:02.032Z,22.59
2016-08-03T06:44:02.015Z,22.59
2016-08-03T06:45:02.007Z,22.56
2016-08-03T06:46:01.979Z,22.59
2016-08-03T06:47:01.255Z,22.66
2016-08-03T06:48:01.962Z,22.6
2016-08-03T06:49:01.942Z,22.66
2016-08-03T06:50:01.917Z,22.57
2016-08-03T06:51:01.903Z,22.61
2016-08-03T06:52:01.897Z,22.61
2016-08-03T06:53:01.872Z,22.52
2016-08-03T06:54:01.867Z,22.51
2016-08-03T06:55:01.839Z,22.49
2016-08-03T06:56:01.837Z,22.41
2016-08-03T06:57:01.810Z,22.33
2016-08-03T06:58:01.805Z,22.3
2016-08-03T06:59:01.787Z,22.36
2016-08-03T07:00:01.775Z,22.29
2016-08-03T07:01:01.763Z,22.27
2016-08-03T07:02:01.744Z,22.41
2016-08-03T07:03:01.725Z,22.49
2016-08-03T07:04:01.718Z,22.36
2016-08-03T07:05:00.989Z,22.33
2016-08-03T07:06:01.676Z,22.38
2016-08-03T07:07:01.664Z,22.31
2016-08-03T07:08:00.933Z,22.36
2016-08-03T07:09:00.917Z,22.29
2016-08-03T07:10:01.613Z,22.35
2016-08-03T07:11:00.897Z,22.35
2016-08-03T07:12:01.586Z,22.21
2016-08-03T07:13:01.576Z,22.2
2016-08-03T07:14:00.860Z,22.29
2016-08-03T07:15:01.557Z,22.23
2016-08-03T07:16:01.525Z,22.31
2016-08-03T07:17:01.506Z,22.31
2016-08-03T07:18:01.492Z,22.3
2016-08-03T07:19:00.786Z,22.26
2016-08-03T07:20:00.750Z,22.19
2016-08-03T07:21:01.445Z,22.21
2016-08-03T07:22:01.433Z,22.3
2016-08-03T07:23:01.416Z,22.26
2016-08-03T07:24:01.403Z,22.26
2016-08-03T07:25:01.381Z,22.29
2016-08-03T07:26:01.368Z,22.33
2016-08-03T07:27:01.349Z,22.31
2016-08-03T07:28:01.343Z,22.41
2016-08-03T07:29:01.348Z,22.36
2016-08-03T07:30:01.312Z,22.35
2016-08-03T07:31:01.290Z,22.46
2016-08-03T07:32:00.696Z,22.31
2016-08-03T07:33:01.291Z,22.3
2016-08-03T07:33:59.823Z,22.27
2016-08-03T07:35:01.252Z,22.31
2016-08-03T07:36:01.260Z,22.3
2016-08-03T07:37:01.212Z,22.31
2016-08-03T07:38:01.198Z,22.24
2016-08-03T07:39:01.179Z,22.21
2016-08-03T07:40:00.478Z,22.29
2016-08-03T07:41:01.140Z,22.29
2016-08-03T07:42:01.130Z,22.29
2016-08-03T07:43:01.128Z,22.15
2016-08-03T07:44:01.096Z,22.15
2016-08-03T07:45:01.084Z,22.08
2016-08-03T07:46:01.070Z,22.11
2016-08-03T07:47:01.044Z,22.02
2016-08-03T07:48:01.036Z,22.06
2016-08-03T07:49:01.022Z,22.06
2016-08-03T07:50:01.000Z,22.06
2016-08-03T07:51:00.990Z,22.09
2016-08-03T07:52:00.259Z,22.05
2016-08-03T07:53:00.968Z,22.11
2016-08-03T07:54:00.940Z,22.05
2016-08-03T07:55:00.214Z,22.04
2016-08-03T07:56:00.915Z,21.93
2016-08-03T07:57:00.897Z,21.94
2016-08-03T07:58:00.158Z,21.91
2016-08-03T07:59:00.857Z,22.04
2016-08-03T08:00:00.847Z,22.06
2016-08-03T08:01:00.141Z,22.05
2016-08-03T08:02:00.809Z,22.15
2016-08-03T08:03:00.802Z,22.14
2016-08-03T08:04:00.787Z,22.12
2016-08-03T08:05:00.765Z,22.19
2016-08-03T08:06:00.047Z,22.26
2016-08-03T08:07:00.026Z,22.27
2016-08-03T08:08:00.722Z,22.36
2016-08-03T08:09:00.707Z,22.27
2016-08-03T08:10:00.692Z,22.3
2016-08-03T08:11:00.692Z,22.31
2016-08-03T08:12:00.679Z,22.31
2016-08-03T08:12:59.936Z,22.39
2016-08-03T08:14:00.629Z,22.38
2016-08-03T08:15:00.617Z,22.33
2016-08-03T08:16:00.598Z,22.44
2016-08-03T08:17:00.587Z,22.36
2016-08-03T08:18:00.565Z,22.36
2016-08-03T08:19:00.548Z,22.44
2016-08-03T08:20:00.535Z,22.44
2016-08-03T08:21:00.517Z,22.45
2016-08-03T08:22:00.507Z,22.44
2016-08-03T08:23:00.508Z,22.45
2016-08-03T08:24:00.471Z,22.42
2016-08-03T08:25:00.461Z,22.51
2016-08-03T08:26:00.453Z,22.45
2016-08-03T08:27:00.433Z,22.51
2016-08-03T08:28:00.413Z,22.46
2016-08-03T08:29:00.393Z,22.45
2016-08-03T08:30:00.378Z,22.49
2016-08-03T08:31:00.364Z,22.49
2016-08-03T08:32:00.354Z,22.49
2016-08-03T08:32:59.643Z,22.51
2016-08-03T08:34:00.312Z,22.46
2016-08-03T08:35:00.312Z,22.49
2016-08-03T08:36:00.282Z,22.51
2016-08-03T08:37:00.281Z,22.45
2016-08-03T08:38:00.248Z,22.51
2016-08-03T08:39:00.236Z,22.48
2016-08-03T08:40:00.225Z,22.46
2016-08-03T08:40:59.500Z,22.42
2016-08-03T08:42:00.201Z,22.42
2016-08-03T08:43:00.180Z,22.41
2016-08-03T08:44:00.166Z,22.45
2016-08-03T08:45:00.170Z,22.42
2016-08-03T08:45:59.683Z,22.51
2016-08-03T08:47:00.118Z,22.41
2016-08-03T08:48:00.106Z,22.41
2016-08-03T08:49:00.086Z,22.42
2016-08-03T08:50:00.071Z,22.35
2016-08-03T08:51:00.053Z,22.45
2016-08-03T08:52:00.170Z,22.36
2016-08-03T08:53:00.023Z,22.35
2016-08-03T08:54:00.008Z,22.49
2016-08-03T08:55:00.018Z,22.45
2016-08-03T08:55:59.266Z,22.48
2016-08-03T08:56:59.967Z,22.56
2016-08-03T08:57:59.947Z,22.54
2016-08-03T08:58:59.948Z,22.49
2016-08-03T08:59:59.208Z,22.6
2016-08-03T09:01:59.890Z,22.59
2016-08-03T09:02:59.871Z,22.66
2016-08-03T09:03:59.870Z,22.61
2016-08-03T09:04:59.838Z,22.54
2016-08-03T09:05:59.827Z,22.56
2016-08-03T09:06:59.818Z,22.64
2016-08-03T09:07:59.803Z,22.57
2016-08-03T09:08:59.778Z,22.63
2016-08-03T09:09:59.767Z,22.59
2016-08-03T09:10:59.742Z,22.6
2016-08-03T09:11:59.733Z,22.56
2016-08-03T09:12:59.713Z,22.61
2016-08-03T09:13:59.712Z,22.66
2016-08-03T09:14:59.682Z,22.57
2016-08-03T09:16:59.656Z,22.64
2016-08-03T09:17:59.636Z,22.63
2016-08-03T09:18:59.619Z,22.64
2016-08-03T09:19:59.614Z,22.64
2016-08-03T09:20:59.597Z,22.67
2016-08-03T09:21:59.579Z,22.69
2016-08-03T09:22:59.563Z,22.72
2016-08-03T09:23:58.835Z,22.69
2016-08-03T09:24:59.533Z,22.72
2016-08-03T09:25:59.523Z,22.7
2016-08-03T09:26:59.506Z,22.69
2016-08-03T09:27:59.490Z,22.69
2016-08-03T09:28:59.480Z,22.67
2016-08-03T09:29:59.475Z,22.69
2016-08-03T09:31:58.719Z,22.72
2016-08-03T09:32:59.417Z,22.69
2016-08-03T09:33:59.400Z,22.72
2016-08-03T09:34:59.382Z,22.67
2016-08-03T09:35:59.352Z,22.7
2016-08-03T09:36:59.352Z,22.72
2016-08-03T09:37:59.338Z,22.66
2016-08-03T09:38:59.319Z,22.67
2016-08-03T09:39:59.303Z,22.72
2016-08-03T09:40:59.286Z,22.7
2016-08-03T09:41:59.270Z,22.7
2016-08-03T09:42:59.259Z,22.67
2016-08-03T09:43:59.242Z,22.66
2016-08-03T09:44:59.230Z,22.66
2016-08-03T09:46:59.192Z,22.67
2016-08-03T09:47:59.178Z,22.7
2016-08-03T09:48:59.179Z,22.72
2016-08-03T09:49:59.153Z,22.7
2016-08-03T09:50:59.134Z,22.74
2016-08-03T09:51:59.117Z,22.69
2016-08-03T09:52:59.102Z,22.67
2016-08-03T09:53:58.382Z,22.72
2016-08-03T09:54:59.071Z,22.7
2016-08-03T09:55:59.071Z,22.69
2016-08-03T09:56:59.048Z,22.74
2016-08-03T09:57:58.312Z,22.66
2016-08-03T09:58:59.008Z,22.75
2016-08-03T09:59:57.603Z,22.69
2016-08-03T10:00:58.971Z,22.76
2016-08-03T10:01:58.962Z,22.74
2016-08-03T10:02:58.955Z,22.67
2016-08-03T10:03:58.933Z,22.76
2016-08-03T10:04:58.922Z,22.69
2016-08-03T10:05:58.907Z,22.7
2016-08-03T10:06:58.893Z,22.69
2016-08-03T10:07:58.879Z,22.7
2016-08-03T10:08:58.854Z,22.7
2016-08-03T10:09:58.846Z,22.72
2016-08-03T10:10:58.827Z,22.67
2016-08-03T10:11:58.808Z,22.81
2016-08-03T10:12:58.097Z,22.79
2016-08-03T10:13:58.796Z,22.82
2016-08-03T10:14:58.767Z,22.85
2016-08-03T10:15:58.044Z,22.82
2016-08-03T10:16:58.729Z,22.93
2016-08-03T10:17:58.718Z,22.84
2016-08-03T10:18:58.696Z,22.84
2016-08-03T10:19:58.698Z,22.86
2016-08-03T10:20:58.669Z,22.89
2016-08-03T10:21:57.947Z,22.85
2016-08-03T10:22:57.931Z,22.89
2016-08-03T10:23:58.630Z,22.93
2016-08-03T10:24:58.607Z,22.84
2016-08-03T10:25:57.892Z,22.82
2016-08-03T10:26:58.576Z,22.85
2016-08-03T10:27:58.567Z,22.89
2016-08-03T10:28:58.558Z,22.94
2016-08-03T10:29:57.825Z,22.93
2016-08-03T10:30:58.532Z,23
2016-08-03T10:31:57.090Z,22.99
2016-08-03T10:32:58.502Z,22.99
2016-08-03T10:33:58.481Z,22.97
2016-08-03T10:34:58.480Z,22.93
2016-08-03T10:35:58.440Z,22.96
2016-08-03T10:36:58.427Z,22.85
2016-08-03T10:37:58.417Z,22.63
2016-08-03T10:38:58.403Z,22.35
2016-08-03T10:39:58.386Z,22.14
2016-08-03T10:40:58.368Z,22.15
2016-08-03T10:41:57.643Z,22.02
2016-08-03T10:42:58.341Z,22.14
2016-08-03T10:43:58.325Z,21.99
2016-08-03T10:44:57.589Z,21.98
2016-08-03T10:45:58.285Z,21.94
2016-08-03T10:46:58.277Z,22.04
2016-08-03T10:47:58.259Z,22.08
2016-08-03T10:48:58.249Z,22.04
2016-08-03T10:49:57.528Z,22.04
2016-08-03T10:50:58.216Z,22.01
2016-08-03T10:51:57.490Z,22.04
2016-08-03T10:52:57.473Z,22.12
2016-08-03T10:53:58.174Z,22.15
2016-08-03T10:54:58.153Z,22.14
2016-08-03T10:55:58.147Z,22.2
2016-08-03T10:56:58.123Z,22.24
2016-08-03T10:57:58.123Z,22.11
2016-08-03T10:58:58.096Z,22.04
2016-08-03T10:59:58.085Z,21.93
2016-08-03T11:00:58.057Z,21.98
2016-08-03T11:01:58.046Z,21.98
2016-08-03T11:02:58.030Z,21.74
2016-08-03T11:03:58.006Z,21.75
2016-08-03T11:04:57.996Z,21.86
2016-08-03T11:05:57.985Z,21.98
2016-08-03T11:06:57.968Z,22.02
2016-08-03T11:07:57.959Z,21.71
2016-08-03T11:08:57.226Z,21.81
2016-08-03T11:09:57.927Z,21.7
2016-08-03T11:10:57.906Z,21.73
2016-08-03T11:11:57.888Z,21.73
2016-08-03T11:12:57.872Z,21.74
2016-08-03T11:13:57.862Z,21.74
2016-08-03T11:14:57.848Z,21.68
2016-08-03T11:15:57.841Z,21.68
2016-08-03T11:16:57.102Z,21.77
2016-08-03T11:17:57.794Z,21.63
2016-08-03T11:18:57.775Z,21.64
2016-08-03T11:19:57.053Z,21.7
2016-08-03T11:20:57.761Z,21.55
2016-08-03T11:21:57.738Z,21.52
2016-08-03T11:22:57.717Z,21.27
2016-08-03T11:23:57.698Z,21.42
2016-08-03T11:24:57.682Z,21.45
2016-08-03T11:25:57.669Z,21.45
2016-08-03T11:26:57.653Z,21.42
2016-08-03T11:27:57.643Z,21.49
2016-08-03T11:28:57.620Z,21.53
2016-08-03T11:29:57.602Z,21.55
2016-08-03T11:30:57.597Z,21.43
2016-08-03T11:31:57.574Z,21.37
2016-08-03T11:32:57.559Z,21.38
2016-08-03T11:33:57.545Z,21.37
2016-08-03T11:34:57.540Z,21.46
2016-08-03T11:35:57.513Z,21.51
2016-08-03T11:36:57.495Z,21.49
2016-08-03T11:37:57.476Z,21.49
2016-08-03T11:38:57.466Z,21.53
2016-08-03T11:39:57.441Z,21.59
2016-08-03T11:40:57.430Z,21.77
2016-08-03T11:41:57.420Z,21.91
2016-08-03T11:42:57.407Z,21.94
2016-08-03T11:43:57.383Z,22.02
2016-08-03T11:44:56.662Z,22.02
2016-08-03T11:45:56.641Z,22.19
2016-08-03T11:46:57.333Z,22.19
2016-08-03T11:47:57.319Z,22.26
2016-08-03T11:48:57.301Z,22.3
2016-08-03T11:49:57.287Z,22.26
2016-08-03T11:50:57.273Z,22.33
2016-08-03T11:51:57.264Z,22.35
2016-08-03T11:52:56.542Z,22.33
2016-08-03T11:53:57.221Z,22.39
2016-08-03T11:54:57.210Z,22.36
2016-08-03T11:55:57.211Z,22.38
2016-08-03T11:56:57.194Z,22.33
2016-08-03T11:57:57.160Z,22.39
2016-08-03T11:58:57.153Z,22.35
2016-08-03T11:59:57.129Z,22.38
2016-08-03T12:00:57.111Z,22.45
2016-08-03T12:01:57.093Z,22.45
2016-08-03T12:02:56.371Z,22.49
2016-08-03T12:03:57.063Z,22.51
2016-08-03T12:04:57.050Z,22.52
2016-08-03T12:05:56.325Z,22.49
2016-08-03T12:06:57.029Z,22.52
2016-08-03T12:07:57.004Z,22.52
2016-08-03T12:08:56.990Z,22.44
2016-08-03T12:09:56.263Z,22.56
2016-08-03T12:10:56.244Z,22.51
2016-08-03T12:11:56.944Z,22.46
2016-08-03T12:12:56.935Z,22.59
2016-08-03T12:13:56.914Z,22.54
2016-08-03T12:14:56.914Z,22.49
2016-08-03T12:15:56.891Z,22.57
2016-08-03T12:16:56.153Z,22.59
2016-08-03T12:17:56.848Z,22.46
2016-08-03T12:18:56.123Z,22.59
2016-08-03T12:19:56.823Z,22.57
2016-08-03T12:20:56.806Z,22.52
2016-08-03T12:21:56.779Z,22.6
2016-08-03T12:22:56.776Z,22.6
2016-08-03T12:23:56.751Z,22.56
2016-08-03T12:24:56.740Z,22.6
2016-08-03T12:25:56.728Z,22.57
2016-08-03T12:26:56.700Z,22.57
2016-08-03T12:27:56.703Z,22.57
2016-08-03T12:28:56.681Z,22.61
2016-08-03T12:29:56.676Z,22.57
2016-08-03T12:30:55.939Z,22.56
2016-08-03T12:31:56.632Z,22.54
2016-08-03T12:32:56.624Z,22.57
2016-08-03T12:33:56.610Z,22.56
2016-08-03T12:34:55.887Z,22.64
2016-08-03T12:35:55.857Z,22.57
2016-08-03T12:36:56.563Z,22.54
2016-08-03T12:37:56.551Z,22.59
2016-08-03T12:38:56.530Z,22.57
2016-08-03T12:39:55.090Z,22.64
2016-08-03T12:40:56.490Z,22.6
2016-08-03T12:41:56.475Z,22.57
2016-08-03T12:42:55.048Z,22.57
2016-08-03T12:43:56.451Z,22.61
2016-08-03T12:44:55.730Z,22.64
2016-08-03T12:45:56.418Z,22.6
2016-08-03T12:46:55.691Z,22.63
2016-08-03T12:47:55.684Z,22.56
2016-08-03T12:48:54.954Z,22.63
2016-08-03T12:49:56.352Z,22.59
2016-08-03T12:50:56.349Z,22.61
2016-08-03T12:51:56.328Z,22.64
2016-08-03T12:52:56.311Z,22.61
2016-08-03T12:53:56.297Z,22.54
2016-08-03T12:54:56.272Z,22.61
2016-08-03T12:55:56.275Z,22.64
2016-08-03T12:56:56.245Z,22.6
2016-08-03T12:57:56.228Z,22.63
2016-08-03T12:58:56.215Z,22.57
2016-08-03T12:59:56.211Z,22.51
2016-08-03T13:00:56.186Z,22.33
2016-08-03T13:01:56.167Z,22.33